Nearby METAR Reports

 

KORH - Worcester, Massachusetts, USA
Distance from station: NW 4mi, 7km
Updated: Mon, 30-Mar-2020 3:54am EDT
Mist, Overcast
Mist, Overcast
 Wind from NNE
Wind: NNE 13 mph , 20 km/h, Gust: 22 mph , 35 km/h
Temperature: 36°F , 2°C
Wind Chill: 27°F , -3°C
Dew Point: 34°F , 1°C
Humidity: 93%
Barometer: 29.95 inHg , 1014.2 hPa
Summary: Mist
Clouds: Overcast
Visibility: 3 miles , 5 km
Cloud details: Overcast 200 ft
2020/03/30 07:54 KORH 300754Z AUTO 02011G19KT 3SM BR OVC002 02/01 A2995 RMK AO2 SLP153 T00220011
KBOS - Boston, Massachusetts, USA
Distance from station: ENE 42mi, 68km
Updated: Mon, 30-Mar-2020 3:54am EDT
Light drizzle, Mist, Overcast
Light drizzle, Mist, Overcast
 Wind from NNE
Wind: NNE 15 mph , 24 km/h
Temperature: 39°F , 4°C
Wind Chill: 31°F , -1°C
Dew Point: 37°F , 3°C
Humidity: 93%
Barometer: 29.97 inHg , 1014.9 hPa
Summary: Light drizzle, Mist
Clouds: Overcast
Visibility: 2 1/2 miles , 4 km
Cloud details: Overcast 700 ft
2020/03/30 07:54 KBOS 300754Z 02013KT 2 1/2SM -DZ BR OVC007 04/03 A2997 RMK AO2 SLP146 P0000 T00440033
 
KCQX - Chatham, Massachusetts, USA
Distance from station: SE 102mi, 164km
Updated: Mon, 30-Mar-2020 3:52am EDT
Mist, Overcast
Mist, Overcast
 Wind from NE
Wind: NE 9 mph , 15 km/h
Temperature: 45°F , 7°C
Wind Chill: 40°F , 4°C
Dew Point: 43°F , 6°C
Humidity: 93%
Barometer: 29.84 inHg , 1010.5 hPa
Summary: Mist
Clouds: Overcast
Visibility: 2 miles , 3 km
Cloud details: Overcast 300 ft
2020/03/30 07:52 KCQX 300752Z AUTO 04008KT 2SM BR OVC003 07/06 A2984 RMK AO2 SLP107 T00670056
KMVY - Marthas Vineyard, Massachusetts, USA
Distance from station: SE 84mi, 135km
Updated: Mon, 30-Mar-2020 3:53am EDT
Mist, Overcast
Mist, Overcast
 Wind from N
Wind: N 14 mph , 22 km/h
Temperature: 45°F , 7°C
Wind Chill: 39°F , 4°C
Dew Point: 43°F , 6°C
Humidity: 93%
Barometer: 29.83 inHg , 1010.2 hPa
Summary: Mist
Clouds: Overcast
Visibility: 5 miles , 8 km
Cloud details: Overcast 300 ft
2020/03/30 07:53 KMVY 300753Z AUTO 36012KT 5SM BR OVC003 07/06 A2983 RMK AO2 SLP102 T00670056
 
KPVC - Provincetown, Massachusetts, USA
Distance from station: NNW 85mi, 136km
Updated: Mon, 30-Mar-2020 3:56am EDT
Mist, Overcast
Mist, Overcast
 Wind from NE
Wind: NE 16 mph , 26 km/h
Temperature: 43°F , 6°C
Wind Chill: 35°F , 2°C
Dew Point: 43°F , 6°C
Humidity: 100%
Barometer: 29.90 inHg , 1012.5 hPa
Summary: Mist
Clouds: Overcast
Visibility: 4 miles , 6 km
Cloud details: Overcast 300 ft
2020/03/30 07:56 KPVC 300756Z AUTO 05014KT 4SM BR OVC003 06/06 A2990 RMK AO2 SLPNO T00560056
KAQW - Savoy, Massachusetts, USA
Distance from station: NNW 66mi, 106km
Updated: Mon, 30-Mar-2020 3:52am EDT
Overcast
Overcast
 Wind from E
Wind: E 12 mph , 19 km/h
Temperature: 39°F , 4°C
Wind Chill: 32°F , 0°C
Dew Point: 34°F , 1°C
Humidity: 81%
Barometer: 29.95 inHg , 1014.2 hPa
Clouds: Overcast
Visibility: 10 miles , 16 km
Cloud details: Overcast 7500 ft
2020/03/30 07:52 KAQW 300752Z AUTO 10010KT 10SM OVC075 04/01 A2995 RMK AO2 SLP146 T00390006
 
KIZG - Fryeburg, Maine, USA
Distance from station: NNE 133mi, 214km
Updated: Mon, 30-Mar-2020 3:54am EDT
Mist, Overcast
Mist, Overcast
 Wind from NW
Wind: NW 5 mph , 7 km/h
Temperature: 34°F , 1°C
Wind Chill: 29°F , -2°C
Dew Point: 32°F , 0°C
Humidity: 93%
Barometer: 30.09 inHg , 1019 hPa
Summary: Mist
Clouds: Overcast
Visibility: 6 miles , 10 km
Cloud details: Overcast 1400 ft
2020/03/30 07:54 KIZG 300754Z AUTO 32004KT 6SM BR OVC014 01/00 A3009 RMK AO2 RAB23E27UPB45E47SNB21E45 SLP194 P0002 T00060000 $
KMWN - Mt Washington, New Hampshire, USA
Distance from station: NNE 146mi, 234km
Updated: Mon, 30-Mar-2020 3:52am EDT

 Wind from S
Wind: S 20 mph , 31 km/h
Visibility: 1/16 mile , 0.1 km
2020/03/30 07:52 KMWN 300752Z 19017KT 1/16SM -PLFZRA FZFG VV001 M04/M04 RMK VRY LGT ICG AND GICG
 
KBML - Berlin, New Hampshire, USA
Distance from station: NNE 160mi, 257km
Updated: Mon, 30-Mar-2020 3:52am EDT
Light snow, Mist, Overcast
Light snow, Mist, Overcast
 Wind from calm
Wind: Calm
Temperature: 34°F , 1°C
Dew Point: 32°F , 0°C
Humidity: 93%
Barometer: 30.02 inHg , 1016.6 hPa
Summary: Light snow, Mist
Clouds: Overcast
Visibility: 1 1/2 miles , 2.4 km
Cloud details: Mostly cloudy 2000 ft
Mostly cloudy 2500 ft
Overcast 4000 ft
2020/03/30 07:52 KBML 300752Z AUTO 00000KT 1 1/2SM -SN BR BKN020 BKN025 OVC040 01/00 A3002 RMK AO2 UPB0655E11SNB11 SLP179 P0002 T00110000